الصفحة الرئيسية
METAR-TAF:

METAR-TAF

مطار :

Midway, الولايات المتحدة

دائرة عرض: 28-13N, خط طول: 177-22W, ارتفاع: 4 متر

مراقبة الطقس الحالي

تاريخ ووقت الإصدار 14 دقيقة قبل الساعة 16:56UTC
ريح 5 عقدة من الشمال/الشمال الشرقي
درجة الحرارة 17°درجة مئوية
الرطوبة 68%
ضغط 1018 hPa
الرؤية: 12.9 كم

METAR: PMDY 151656Z AUTO 03005KT 8SM 17/11 A3005 RMK AO2 SLP175 T01720111

زمن: 07:10 (17:10 UTC)

توقعات

تاريخ ووقت الإصدار 2ساعات و 15 دقيقة قبل الساعة 14:55UTC
التوقعات صالحة من15 الساعة 15 UTC إلى 16 الساعة 12 UTC
ريح 5 عقدة من الشمال/الشمال الشرقي
الرؤية: 10 كم
غيوم متفرقة على ارتفاع 2200 قدم
غيوم مفككة على ارتفاع 4000 قدم
من 16 الساعة 0000 UTC
ريح 6 عقدة من الجنوب
الرؤية: 10 كم
غيوم متفرقة على ارتفاع 2200 قدم
غيوم مفككة على ارتفاع 4000 قدم
من 16 الساعة 1100 UTC
ريح 7 عقدة من الغرب/الجنوب الغربي
الرؤية: 10 كم
غيوم متفرقة على ارتفاع 1700 قدم
غيوم مفككة على ارتفاع 4000 قدم
زخات في الجوار

TAF: PMDY 151455Z 1515/1612 03005KT P6SM SCT022 BKN040 FM160000 18006KT P6SM SCT022 BKN040 FM161100 25007KT P6SM VCSH SCT017 BKN040

أرصاد الطقس والتوقعات من أكثر من 4000 مطار (تقارير الطقس للمطار METAR والتنبؤ بالطقس بالمطارTAF).

المحطات المتاحة هي النقط الصفراء والحمراء على الخريطة.

حرك المؤشر فوق النقطة لمعرفة اسم المحطة.

ثم انقر لمعرفة أرصاد وتوقعات الطقس.

لتغيير الخارطة: اضغط على الأزرار الخضراء مع رمز الصليب الأسود للتكبير. على الزر الأخضر مع شرطة للتصغير، أو على الأسهم الخضراء للخرائط المجاورة.


METAR-TAF: